KEUG/EUG METAR and TAF weather

Enter ICAO airport designator
Station Type Date Time Source
KEUG METAR 2018/12/10 13:13 UTC NOAA

KEUG 101313Z AUTO 21005KT 3/4SM R16R/3000V4500FT BR FEW001 BKN040 OVC090 04/03 A3029 RMK AO2 T00390033


Station Type Date Time Source
KEUG Decoded METAR 2018/12/10 13:13 UTC NOAA

MAHLON SWEET FIELD, OR, United States (KEUG) 44-08N 123-13W 114M
Dec 10, 2018 - 08:13 AM EST / 2018.12.10 1313 UTC
Wind: from the SSW (210 degrees) at 6 MPH (5 KT) (direction variable):0
Visibility: 3/4 mile(s):0
Sky conditions: overcast
Weather: mist
Temperature: 39.0 F (3.9 C)
Dew Point: 37.9 F (3.3 C)
Relative Humidity: 95%
Pressure (altimeter): 30.29 in. Hg (1025 hPa)
ob: KEUG 101313Z AUTO 21005KT 3/4SM R16R/3000V4500FT BR FEW001 BKN040 OVC090 04/03 A3029 RMK AO2 T00390033
cycle: 13

Station Type Date Time Source
KEUG TAF 2018/12/10 12:36 UTC NOAA

TAF KEUG 101134Z 1012/1112 17006KT 5SM BR FEW002 BKN045 OVC060
FM101400 22004KT 3SM BR BKN005 BKN045
FM101700 19004KT P6SM SCT005 BKN035 BKN060
FM102200 19006KT P6SM SCT035 OVC080


Example: see airport list